Time;durP1;ratioP1;P1;durP2;ratioP2;P2;SDS_P1;SDS_P2;PMS_P1;PMS_P2;Temp;Humidity;BMP_temperature;BMP_pressure;BME280_temperature;BME280_humidity;BME280_pressure;Samples;Min_cycle;Max_cycle;Signal;HPM_P1;HPM_P2
2021/12/29 00:00:51;;;;;;;2.50;0.90;;;9.80;99.90;;;;;;20916908;28;20207;-69
2021/12/29 00:10:55;;;;;;;2.93;1.20;;;9.80;99.90;;;;;;20915230;28;20360;-72
2021/12/29 00:20:58;;;;;;;2.80;1.00;;;9.80;99.90;;;;;;20915873;28;20682;-63
2021/12/29 00:31:00;;;;;;;3.27;1.00;;;9.80;99.90;;;;;;20914715;28;20630;-63
2021/12/29 00:41:02;;;;;;;0.80;0.80;;;9.80;99.90;;;;;;20914169;28;20215;-68
2021/12/29 00:51:05;;;;;;;2.30;0.90;;;9.70;99.90;;;;;;20913594;28;20231;-71
2021/12/29 01:01:07;;;;;;;1.80;0.90;;;9.80;99.90;;;;;;20912922;28;20204;-68
2021/12/29 01:11:09;;;;;;;1.40;0.97;;;9.80;99.90;;;;;;20912181;28;20788;-71
2021/12/29 01:21:11;;;;;;;0.90;0.90;;;9.90;99.90;;;;;;20912533;28;20204;-66
2021/12/29 01:31:13;;;;;;;2.43;1.00;;;9.90;99.90;;;;;;20927020;28;20302;-71
2021/12/29 01:41:15;;;;;;;1.20;0.70;;;9.90;99.90;;;;;;20928269;28;20615;-70
2021/12/29 01:51:18;;;;;;;4.10;1.10;;;9.90;99.90;;;;;;20927582;28;20236;-69
2021/12/29 02:01:20;;;;;;;1.63;0.80;;;9.90;99.90;;;;;;20926284;28;20698;-71
2021/12/29 02:11:29;;;;;;;1.00;0.77;;;9.90;99.90;;;;;;20925330;28;20715;-71
2021/12/29 02:21:32;;;;;;;0.70;0.70;;;9.90;99.90;;;;;;20925238;28;20219;-62
2021/12/29 02:31:36;;;;;;;1.50;0.70;;;9.90;99.90;;;;;;20923916;28;20266;-61
2021/12/29 02:41:42;;;;;;;1.63;0.83;;;10.00;99.90;;;;;;20922421;28;20201;-61
2021/12/29 02:51:43;;;;;;;1.90;0.80;;;10.00;99.90;;;;;;20922776;28;20237;-62
2021/12/29 03:01:45;;;;;;;2.23;0.80;;;10.00;99.90;;;;;;20921761;28;20209;-65
2021/12/29 03:11:47;;;;;;;1.83;0.83;;;10.00;99.90;;;;;;20920829;28;20248;-71
2021/12/29 03:21:50;;;;;;;1.53;0.80;;;10.10;99.90;;;;;;20919979;28;20615;-72
2021/12/29 03:31:52;;;;;;;1.90;0.80;;;10.10;99.90;;;;;;20917380;28;20238;-64
2021/12/29 03:41:54;;;;;;;0.70;0.60;;;10.10;99.90;;;;;;20918775;28;20660;-62
2021/12/29 03:51:56;;;;;;;0.73;0.70;;;10.10;99.90;;;;;;20917116;28;20237;-62
2021/12/29 04:02:00;;;;;;;0.50;0.50;;;10.00;99.90;;;;;;20916981;28;20215;-68
2021/12/29 04:12:02;;;;;;;1.90;0.70;;;10.10;99.90;;;;;;20916090;28;20241;-72
2021/12/29 04:22:04;;;;;;;0.67;0.60;;;10.20;99.90;;;;;;20915702;28;20208;-70
2021/12/29 04:32:06;;;;;;;0.80;0.70;;;10.10;99.90;;;;;;20913417;28;20287;-65
2021/12/29 04:42:08;;;;;;;1.40;0.53;;;10.20;99.90;;;;;;20914014;28;20203;-65
2021/12/29 04:52:10;;;;;;;1.20;0.70;;;10.20;99.90;;;;;;20913698;28;20241;-67
2021/12/29 05:02:12;;;;;;;0.77;0.73;;;10.20;99.90;;;;;;20912714;28;20213;-68
2021/12/29 05:12:14;;;;;;;2.00;0.70;;;10.20;99.90;;;;;;20912086;28;20238;-66
2021/12/29 05:22:17;;;;;;;0.83;0.80;;;10.20;99.90;;;;;;20911638;28;20656;-73
2021/12/29 05:32:19;;;;;;;0.80;0.80;;;10.20;99.90;;;;;;20909600;28;20229;-66
2021/12/29 05:42:20;;;;;;;1.27;0.70;;;10.20;99.90;;;;;;20911130;28;20217;-65
2021/12/29 05:52:23;;;;;;;1.50;0.70;;;10.20;99.90;;;;;;20910949;28;20239;-65
2021/12/29 06:02:24;;;;;;;1.08;0.70;;;10.20;99.90;;;;;;20913397;28;20437;-62
2021/12/29 06:12:26;;;;;;;0.93;0.73;;;10.50;99.90;;;;;;20994724;28;20239;-62
2021/12/29 06:22:28;;;;;;;0.83;0.80;;;10.30;99.90;;;;;;21006574;28;20209;-63
2021/12/29 06:32:30;;;;;;;1.20;0.87;;;10.20;99.90;;;;;;21006161;28;20309;-71
2021/12/29 06:42:32;;;;;;;1.97;0.93;;;10.10;99.90;;;;;;21005830;28;20258;-63
2021/12/29 06:52:34;;;;;;;0.93;0.90;;;10.10;99.90;;;;;;21005377;28;20232;-62
2021/12/29 07:02:35;;;;;;;1.10;1.00;;;10.20;99.90;;;;;;21003551;28;20204;-67
2021/12/29 07:12:37;;;;;;;1.53;1.40;;;10.20;99.70;;;;;;21003466;28;20272;-70
2021/12/29 07:22:39;;;;;;;5.80;2.87;;;10.20;99.90;;;;;;20971950;28;20254;-64
2021/12/29 07:32:41;;;;;;;1.83;1.10;;;10.10;99.90;;;;;;20918120;28;20792;-72
2021/12/29 07:42:44;;;;;;;1.67;1.30;;;10.20;99.90;;;;;;20918567;28;20214;-66
2021/12/29 07:52:48;;;;;;;3.10;1.60;;;10.20;99.90;;;;;;20917745;28;20236;-70
2021/12/29 08:02:52;;;;;;;1.63;1.30;;;10.30;99.80;;;;;;20917266;28;20215;-71
2021/12/29 08:12:54;;;;;;;2.27;1.40;;;10.40;99.90;;;;;;20985714;28;20795;-64
2021/12/29 08:22:56;;;;;;;1.00;0.90;;;10.40;99.90;;;;;;20998122;28;20655;-66
2021/12/29 08:32:58;;;;;;;1.20;1.10;;;10.40;99.90;;;;;;20997769;28;20284;-70
2021/12/29 08:43:02;;;;;;;1.50;0.97;;;10.50;99.90;;;;;;20996694;28;20209;-69
2021/12/29 08:53:06;;;;;;;2.47;1.10;;;10.60;99.90;;;;;;20996647;28;20287;-67
2021/12/29 09:03:07;;;;;;;1.77;1.00;;;10.60;99.90;;;;;;20996088;28;20626;-66
2021/12/29 09:13:10;;;;;;;1.03;1.00;;;10.60;99.90;;;;;;20994266;28;20236;-68
2021/12/29 09:23:13;;;;;;;1.17;1.00;;;10.50;99.90;;;;;;20965700;28;20207;-69
2021/12/29 09:33:17;;;;;;;2.17;1.40;;;10.50;99.90;;;;;;20913894;28;20224;-75
2021/12/29 09:43:20;;;;;;;2.43;2.00;;;10.60;99.90;;;;;;20996659;28;20213;-66
2021/12/29 09:53:21;;;;;;;3.23;1.90;;;10.60;99.90;;;;;;21009726;28;20237;-67
2021/12/29 10:03:25;;;;;;;2.37;1.70;;;10.70;99.90;;;;;;21009624;28;20214;-68
2021/12/29 10:13:32;;;;;;;3.30;1.90;;;10.80;99.90;;;;;;21008069;28;20634;-67
2021/12/29 10:23:37;;;;;;;2.10;1.50;;;10.70;99.90;;;;;;21007663;28;20206;-68
2021/12/29 10:33:46;;;;;;;2.20;1.80;;;10.70;99.90;;;;;;21007087;28;20281;-65
2021/12/29 10:44:00;;;;;;;4.17;2.07;;;10.70;99.90;;;;;;21006325;28;20669;-73
2021/12/29 10:54:19;;;;;;;3.60;2.00;;;10.60;99.90;;;;;;21004561;28;20223;-67
2021/12/29 11:04:22;;;;;;;4.33;1.87;;;10.70;99.90;;;;;;21004585;28;20239;-67
2021/12/29 11:14:32;;;;;;;2.93;1.70;;;10.80;99.90;;;;;;21003604;28;20600;-66
2021/12/29 11:24:34;;;;;;;2.80;1.80;;;11.10;99.90;;;;;;20968389;28;20229;-67
2021/12/29 11:34:36;;;;;;;4.90;1.80;;;11.10;99.90;;;;;;20987090;28;20704;-76
2021/12/29 11:44:39;;;;;;;5.67;2.20;;;11.20;99.90;;;;;;21001501;28;20259;-77
2021/12/29 11:54:46;;;;;;;5.13;1.73;;;11.20;99.30;;;;;;21000223;28;20229;-69
2021/12/29 12:05:18;;;;;;;6.20;1.60;;;11.30;99.20;;;;;;21000322;28;20712;-75
2021/12/29 12:15:38;;;;;;;2.40;1.60;;;11.40;98.60;;;;;;20997800;28;20636;-68
2021/12/29 12:25:40;;;;;;;3.00;1.73;;;11.50;98.30;;;;;;20997655;28;20257;-72
2021/12/29 12:35:45;;;;;;;4.03;2.40;;;11.50;98.50;;;;;;20995144;28;20610;-76
2021/12/29 12:45:50;;;;;;;5.23;2.17;;;11.60;98.20;;;;;;20995784;28;20642;-76
2021/12/29 12:55:55;;;;;;;4.60;1.70;;;11.60;96.80;;;;;;20997270;28;20283;-72
2021/12/29 13:06:00;;;;;;;2.50;1.73;;;11.60;96.90;;;;;;20995420;28;20268;-70
2021/12/29 13:16:09;;;;;;;5.13;1.80;;;11.60;97.10;;;;;;20997084;28;20240;-77
2021/12/29 13:26:12;;;;;;;4.60;1.50;;;11.50;96.30;;;;;;20996144;28;20281;-72
2021/12/29 13:36:16;;;;;;;4.93;1.67;;;11.50;96.50;;;;;;20996126;28;20627;-72
2021/12/29 13:46:25;;;;;;;3.80;1.80;;;11.50;96.40;;;;;;20995807;28;20301;-77
2021/12/29 13:56:33;;;;;;;3.53;1.63;;;11.60;96.40;;;;;;20995062;28;20692;-72
2021/12/29 14:06:36;;;;;;;2.63;1.63;;;11.60;96.40;;;;;;20998024;28;20242;-77
2021/12/29 14:17:10;;;;;;;3.00;1.40;;;11.50;96.40;;;;;;20995115;28;20241;-74
2021/12/29 14:27:12;;;;;;;3.63;1.50;;;11.50;96.20;;;;;;20992883;28;20206;-77
2021/12/29 14:37:15;;;;;;;4.27;1.77;;;11.40;96.20;;;;;;20952379;28;20279;-69
2021/12/29 14:47:18;;;;;;;4.27;2.13;;;11.40;96.60;;;;;;20922388;28;20623;-63
2021/12/29 14:57:31;;;;;;;4.97;2.60;;;11.40;96.60;;;;;;20922444;28;20210;-70
2021/12/29 15:07:37;;;;;;;13.93;6.27;;;11.40;96.70;;;;;;20921399;28;20238;-68
2021/12/29 15:17:39;;;;;;;19.17;5.47;;;11.30;96.80;;;;;;20920795;28;20207;-64
2021/12/29 15:27:41;;;;;;;7.57;3.20;;;11.30;96.80;;;;;;20920065;28;20354;-70
2021/12/29 15:37:43;;;;;;;4.20;2.33;;;11.30;97.10;;;;;;20919164;28;20211;-66
2021/12/29 15:47:45;;;;;;;5.67;2.63;;;11.20;97.10;;;;;;20918090;28;20233;-67
2021/12/29 15:57:47;;;;;;;6.23;3.30;;;11.30;97.50;;;;;;20916373;28;20252;-69
2021/12/29 16:07:50;;;;;;;4.23;2.43;;;11.30;97.70;;;;;;20963115;28;20280;-69
2021/12/29 16:17:52;;;;;;;4.03;1.90;;;11.20;97.70;;;;;;20998584;28;20237;-69
2021/12/29 16:27:55;;;;;;;6.93;3.03;;;11.20;98.10;;;;;;20998015;28;20626;-70
2021/12/29 16:37:56;;;;;;;4.30;2.33;;;11.20;98.30;;;;;;20989625;28;20570;-67
2021/12/29 16:47:58;;;;;;;4.77;3.20;;;11.20;98.70;;;;;;20997288;28;20229;-63
2021/12/29 16:58:00;;;;;;;4.97;2.60;;;11.20;98.90;;;;;;20995541;28;20216;-73
2021/12/29 17:08:03;;;;;;;5.17;2.80;;;11.20;99.20;;;;;;20995505;28;20763;-68
2021/12/29 17:18:04;;;;;;;7.50;3.07;;;11.10;99.40;;;;;;20995953;28;20208;-74
2021/12/29 17:28:06;;;;;;;5.77;2.93;;;11.10;99.50;;;;;;20994833;28;20224;-69
2021/12/29 17:38:08;;;;;;;8.17;3.47;;;11.10;99.70;;;;;;20994269;28;20699;-75
2021/12/29 17:48:13;;;;;;;7.67;3.10;;;11.10;99.90;;;;;;20993367;28;20235;-71
2021/12/29 17:58:16;;;;;;;6.40;2.90;;;11.10;99.90;;;;;;20995022;28;20212;-71
2021/12/29 18:08:18;;;;;;;10.53;3.50;;;11.10;99.90;;;;;;21000813;28;20242;-71
2021/12/29 18:18:20;;;;;;;3.83;2.70;;;11.00;99.90;;;;;;21010153;28;20210;-70
2021/12/29 18:28:21;;;;;;;8.37;3.43;;;11.10;99.90;;;;;;21008008;28;20241;-63
2021/12/29 18:38:23;;;;;;;6.17;2.27;;;11.00;99.90;;;;;;20978226;28;20205;-64
2021/12/29 18:48:25;;;;;;;4.30;2.20;;;11.00;99.90;;;;;;21002201;28;20226;-70
2021/12/29 18:58:27;;;;;;;3.23;2.23;;;11.00;99.90;;;;;;21003069;28;20209;-70
2021/12/29 19:08:28;;;;;;;3.40;1.97;;;11.00;99.90;;;;;;20999600;28;20290;-65
2021/12/29 19:18:30;;;;;;;5.83;3.43;;;11.00;99.90;;;;;;20990324;28;20204;-72
2021/12/29 19:28:32;;;;;;;6.40;3.77;;;11.00;99.90;;;;;;21000403;28;20246;-70
2021/12/29 19:38:34;;;;;;;12.87;7.47;;;10.90;99.90;;;;;;21002713;28;20200;-68
2021/12/29 19:48:41;;;;;;;3.93;3.03;;;10.90;99.90;;;;;;21001636;28;20240;-64
2021/12/29 19:58:44;;;;;;;5.03;3.07;;;11.00;99.90;;;;;;20998859;28;20331;-69
2021/12/29 20:08:46;;;;;;;5.57;3.13;;;11.00;99.90;;;;;;20997842;28;20237;-69
2021/12/29 20:18:50;;;;;;;4.37;3.27;;;10.90;99.90;;;;;;20997399;28;20205;-75
2021/12/29 20:28:52;;;;;;;2.83;2.20;;;11.00;99.90;;;;;;20997772;28;20236;-72
2021/12/29 20:38:55;;;;;;;2.33;2.13;;;11.00;99.90;;;;;;20996371;28;20226;-76
2021/12/29 20:48:59;;;;;;;2.17;1.63;;;10.90;99.90;;;;;;20996974;28;20232;-70
2021/12/29 20:59:01;;;;;;;1.90;1.60;;;10.80;99.90;;;;;;20996455;28;20213;-70
2021/12/29 21:09:04;;;;;;;1.27;1.17;;;10.90;99.90;;;;;;20927592;28;20247;-63
2021/12/29 21:19:06;;;;;;;1.40;1.10;;;10.90;99.90;;;;;;20911634;28;20263;-64
2021/12/29 21:29:08;;;;;;;2.00;1.63;;;12.80;99.90;;;;;;20911418;28;20292;-63
2021/12/29 21:39:09;;;;;;;4.83;2.00;;;11.10;99.90;;;;;;20912665;28;20259;-68
2021/12/29 21:49:11;;;;;;;2.20;2.00;;;11.10;99.90;;;;;;20927083;28;20289;-69
2021/12/29 21:59:13;;;;;;;1.30;1.20;;;11.10;99.90;;;;;;20926211;28;20210;-73
2021/12/29 22:09:15;;;;;;;1.20;1.10;;;11.10;99.90;;;;;;20924838;28;20240;-69
2021/12/29 22:19:16;;;;;;;1.40;1.30;;;11.20;99.90;;;;;;20924730;28;20201;-64
2021/12/29 22:29:20;;;;;;;1.30;1.20;;;11.20;99.90;;;;;;21004377;28;20266;-73
2021/12/29 22:39:23;;;;;;;1.40;1.30;;;11.30;99.90;;;;;;21005349;28;20222;-71
2021/12/29 22:49:25;;;;;;;1.40;1.30;;;11.30;99.90;;;;;;21002430;28;20319;-63
2021/12/29 22:59:27;;;;;;;2.23;1.90;;;11.30;99.90;;;;;;21005306;28;20203;-67
2021/12/29 23:09:29;;;;;;;1.70;1.60;;;11.50;99.90;;;;;;21004687;28;20273;-67
2021/12/29 23:19:31;;;;;;;1.60;1.47;;;11.50;99.90;;;;;;21004510;28;20205;-69
2021/12/29 23:29:32;;;;;;;1.70;1.60;;;11.60;99.90;;;;;;21003283;28;20747;-76
2021/12/29 23:39:34;;;;;;;2.47;1.50;;;11.90;99.90;;;;;;21002448;28;20203;-76
2021/12/29 23:49:36;;;;;;;2.63;2.20;;;12.00;99.90;;;;;;21002049;28;20731;-76
2021/12/29 23:59:38;;;;;;;3.47;2.10;;;12.10;99.90;;;;;;21000770;28;20208;-76
